Time;durP1;ratioP1;P1;durP2;ratioP2;P2;SDS_P1;SDS_P2;PMS_P1;PMS_P2;Temp;Humidity;BMP_temperature;BMP_pressure;BME280_temperature;BME280_humidity;BME280_pressure;Samples;Min_cycle;Max_cycle;Signal;HPM_P1;HPM_P2
2023/07/30 00:01:23;;;;;;;5.22;1.85;;;18.80;99.90;;;;;;5070835;28;20025;-69
2023/07/30 00:03:49;;;;;;;4.30;1.40;;;18.80;99.90;;;;;;5072183;28;20218;-70
2023/07/30 00:06:14;;;;;;;4.15;1.60;;;18.80;99.90;;;;;;5070999;28;20143;-69
2023/07/30 00:08:40;;;;;;;2.17;1.38;;;18.80;99.90;;;;;;5072423;28;20024;-70
2023/07/30 00:11:05;;;;;;;3.10;1.35;;;18.90;99.90;;;;;;5072012;28;20037;-69
2023/07/30 00:13:31;;;;;;;4.55;1.50;;;18.80;99.90;;;;;;5072039;28;20048;-69
2023/07/30 00:15:57;;;;;;;1.80;1.30;;;18.80;99.90;;;;;;5072119;28;20064;-69
2023/07/30 00:18:22;;;;;;;7.45;1.75;;;18.70;99.90;;;;;;5071825;28;20029;-69
2023/07/30 00:20:48;;;;;;;1.67;1.23;;;18.80;99.90;;;;;;5073173;28;20039;-70
2023/07/30 00:23:14;;;;;;;5.78;1.60;;;18.80;99.90;;;;;;5072650;28;20052;-68
2023/07/30 00:25:39;;;;;;;1.92;1.25;;;18.80;99.90;;;;;;5070805;28;20481;-71
2023/07/30 00:28:05;;;;;;;1.80;1.15;;;18.70;99.90;;;;;;5071692;28;20604;-71
2023/07/30 00:30:31;;;;;;;4.68;1.90;;;18.70;99.90;;;;;;5071931;28;20025;-70
2023/07/30 00:32:56;;;;;;;3.10;1.77;;;18.70;99.90;;;;;;5070604;28;20060;-70
2023/07/30 00:35:22;;;;;;;1.52;1.40;;;18.70;99.90;;;;;;5071482;28;20020;-70
2023/07/30 00:37:48;;;;;;;3.53;1.85;;;18.70;99.90;;;;;;5070639;28;20025;-69
2023/07/30 00:40:14;;;;;;;3.75;1.50;;;18.70;99.90;;;;;;5070950;28;20463;-69
2023/07/30 00:42:39;;;;;;;3.20;2.00;;;18.80;99.90;;;;;;5071876;28;20044;-70
2023/07/30 00:45:06;;;;;;;5.97;2.30;;;18.70;99.90;;;;;;5071084;28;20234;-70
2023/07/30 00:47:32;;;;;;;3.65;1.75;;;18.70;99.90;;;;;;5072124;28;20055;-69
2023/07/30 00:49:58;;;;;;;3.63;2.47;;;18.70;99.90;;;;;;5070479;28;20028;-70
2023/07/30 00:52:25;;;;;;;7.43;1.92;;;18.80;99.90;;;;;;5070325;28;20343;-70
2023/07/30 00:54:51;;;;;;;4.10;1.75;;;18.70;99.90;;;;;;5071073;28;20040;-70
2023/07/30 00:57:19;;;;;;;2.40;1.80;;;18.70;99.90;;;;;;5071116;28;20146;-71
2023/07/30 00:59:47;;;;;;;1.43;1.30;;;18.80;99.90;;;;;;5071394;28;20052;-70
2023/07/30 01:02:13;;;;;;;2.70;1.52;;;18.80;99.90;;;;;;5069969;28;20308;-70
2023/07/30 01:04:40;;;;;;;3.13;2.00;;;18.90;99.90;;;;;;5071089;28;20020;-70
2023/07/30 01:07:06;;;;;;;2.10;1.50;;;18.80;99.90;;;;;;5070914;28;20590;-71
2023/07/30 01:09:33;;;;;;;1.73;1.30;;;18.90;99.90;;;;;;5071182;28;20358;-70
2023/07/30 01:12:00;;;;;;;6.63;1.75;;;18.90;99.90;;;;;;5069750;28;20028;-68
2023/07/30 01:14:26;;;;;;;2.63;1.60;;;18.90;99.90;;;;;;5071700;28;20032;-69
2023/07/30 01:16:52;;;;;;;5.25;1.88;;;18.80;99.90;;;;;;5070796;28;20111;-69
2023/07/30 01:19:18;;;;;;;2.95;1.90;;;18.90;99.90;;;;;;5070726;28;20160;-69
2023/07/30 01:21:44;;;;;;;3.50;1.85;;;18.80;99.90;;;;;;5070584;28;20451;-71
2023/07/30 01:24:10;;;;;;;4.75;1.73;;;18.90;99.90;;;;;;5070601;28;20312;-71
2023/07/30 01:27:09;;;;;;;3.28;1.60;;;18.90;99.90;;;;;;5071034;28;20040;-70
2023/07/30 01:29:51;;;;;;;2.70;1.77;;;18.90;99.90;;;;;;5063228;28;20060;-68
2023/07/30 01:32:19;;;;;;;3.78;1.77;;;18.90;99.90;;;;;;5070359;28;20037;-70
2023/07/30 01:34:46;;;;;;;2.60;2.00;;;19.00;99.90;;;;;;5070486;28;20063;-69
2023/07/30 01:37:13;;;;;;;2.33;1.45;;;19.00;99.90;;;;;;5090279;28;20024;-71
2023/07/30 01:39:42;;;;;;;6.20;2.70;;;19.00;99.90;;;;;;5090976;28;20032;-69
2023/07/30 01:42:08;;;;;;;2.28;1.70;;;19.00;99.90;;;;;;5090682;28;20034;-69
2023/07/30 01:44:33;;;;;;;3.33;2.03;;;18.80;99.90;;;;;;5090918;28;20126;-69
2023/07/30 01:46:59;;;;;;;5.53;2.15;;;18.90;99.90;;;;;;5090489;28;20020;-70
2023/07/30 01:49:24;;;;;;;2.28;2.05;;;18.90;99.90;;;;;;5090519;28;20038;-70
2023/07/30 01:51:50;;;;;;;4.50;2.05;;;18.90;99.90;;;;;;5090167;28;20028;-69
2023/07/30 01:54:16;;;;;;;5.15;2.17;;;18.90;99.90;;;;;;5090524;28;20028;-69
2023/07/30 01:56:41;;;;;;;4.57;2.10;;;18.90;99.90;;;;;;5090685;28;20359;-69
2023/07/30 01:59:07;;;;;;;6.03;2.45;;;18.80;99.90;;;;;;5090941;28;20039;-69
2023/07/30 02:01:33;;;;;;;7.15;2.50;;;18.80;99.90;;;;;;5090425;28;20141;-69
2023/07/30 02:03:58;;;;;;;4.78;2.10;;;18.80;99.90;;;;;;5090441;28;20039;-70
2023/07/30 02:06:24;;;;;;;3.35;2.13;;;18.80;99.90;;;;;;5090500;28;20531;-69
2023/07/30 02:08:49;;;;;;;2.25;1.73;;;18.80;99.90;;;;;;5090668;28;20386;-69
2023/07/30 02:11:15;;;;;;;2.55;2.00;;;18.70;99.90;;;;;;5090250;28;20040;-69
2023/07/30 02:13:42;;;;;;;4.43;2.58;;;18.70;99.90;;;;;;5090328;28;20047;-70
2023/07/30 02:16:07;;;;;;;5.88;2.60;;;18.70;99.90;;;;;;5089123;28;20576;-69
2023/07/30 02:18:33;;;;;;;6.95;2.63;;;18.70;99.90;;;;;;5090080;28;20111;-69
2023/07/30 02:20:59;;;;;;;3.85;2.40;;;18.60;99.90;;;;;;5089996;28;20024;-70
2023/07/30 02:23:24;;;;;;;5.50;2.72;;;18.60;99.90;;;;;;5090390;28;20178;-69
2023/07/30 02:25:50;;;;;;;3.38;2.28;;;18.60;99.90;;;;;;5090071;28;20366;-70
2023/07/30 02:28:16;;;;;;;4.18;2.13;;;18.60;99.90;;;;;;5088662;28;20032;-70
2023/07/30 02:30:42;;;;;;;6.88;2.17;;;18.60;99.90;;;;;;5088739;28;20035;-70
2023/07/30 02:33:07;;;;;;;6.20;2.50;;;18.60;99.90;;;;;;5090121;28;20044;-68
2023/07/30 02:35:33;;;;;;;3.83;2.25;;;18.60;99.90;;;;;;5089273;28;20023;-70
2023/07/30 02:37:58;;;;;;;3.85;2.03;;;18.60;99.90;;;;;;5088868;28;20025;-71
2023/07/30 02:40:24;;;;;;;4.15;2.45;;;18.60;99.90;;;;;;5089804;28;20028;-70
2023/07/30 02:42:50;;;;;;;4.13;2.40;;;18.50;99.90;;;;;;5089942;28;20093;-69
2023/07/30 02:45:16;;;;;;;4.70;2.67;;;18.50;99.90;;;;;;5088754;28;20036;-71
2023/07/30 02:47:42;;;;;;;4.40;1.88;;;18.40;99.90;;;;;;5090539;28;20020;-68
2023/07/30 02:50:08;;;;;;;8.57;1.90;;;18.50;99.90;;;;;;5089707;28;20073;-71
2023/07/30 02:52:34;;;;;;;8.98;2.13;;;18.40;99.90;;;;;;5089620;28;20047;-69
2023/07/30 02:54:59;;;;;;;5.78;2.25;;;18.40;99.90;;;;;;5089641;28;20032;-69
2023/07/30 02:57:25;;;;;;;6.45;2.00;;;18.40;99.90;;;;;;5088478;28;20048;-69
2023/07/30 02:59:51;;;;;;;6.57;1.73;;;18.30;99.90;;;;;;5088990;28;20173;-70
2023/07/30 03:02:16;;;;;;;4.97;1.80;;;18.30;99.90;;;;;;5089740;28;20032;-68
2023/07/30 03:04:42;;;;;;;5.43;2.00;;;18.30;99.90;;;;;;5091813;28;20032;-68
2023/07/30 03:07:09;;;;;;;5.00;1.75;;;18.30;99.90;;;;;;5093419;28;20029;-70
2023/07/30 03:09:35;;;;;;;3.97;2.03;;;18.30;99.90;;;;;;5075501;28;20551;-69
2023/07/30 03:12:00;;;;;;;4.70;2.00;;;18.20;99.90;;;;;;5093290;28;20288;-69
2023/07/30 03:14:26;;;;;;;3.80;2.08;;;18.20;99.90;;;;;;5093868;28;20458;-70
2023/07/30 03:16:52;;;;;;;5.10;1.85;;;18.20;99.90;;;;;;5093134;28;20054;-69
2023/07/30 03:19:17;;;;;;;8.73;2.50;;;18.20;99.90;;;;;;5093231;28;20031;-69
2023/07/30 03:21:43;;;;;;;5.93;1.98;;;18.20;99.90;;;;;;5093068;28;20036;-69
2023/07/30 03:24:08;;;;;;;5.90;1.85;;;18.10;99.90;;;;;;5092123;28;20024;-69
2023/07/30 03:26:34;;;;;;;10.07;2.28;;;18.20;99.90;;;;;;5093891;28;20115;-70
2023/07/30 03:29:00;;;;;;;3.90;1.50;;;18.20;99.90;;;;;;5093031;28;20032;-70
2023/07/30 03:31:26;;;;;;;6.68;2.22;;;18.20;99.90;;;;;;5093010;28;20421;-69
2023/07/30 03:33:51;;;;;;;3.63;2.00;;;18.20;99.90;;;;;;5093163;28;20454;-69
2023/07/30 03:36:17;;;;;;;5.45;1.58;;;18.10;99.90;;;;;;5091705;28;20042;-70
2023/07/30 03:38:43;;;;;;;4.03;1.80;;;18.10;99.90;;;;;;5093439;28;20016;-69
2023/07/30 03:41:10;;;;;;;6.65;1.77;;;18.10;99.90;;;;;;5092876;28;20485;-69
2023/07/30 03:43:36;;;;;;;8.75;2.50;;;18.10;99.90;;;;;;5093005;28;20032;-70
2023/07/30 03:46:02;;;;;;;5.38;1.77;;;18.10;99.90;;;;;;5092842;28;20084;-69
2023/07/30 03:48:27;;;;;;;9.32;2.22;;;18.10;99.90;;;;;;5091827;28;20028;-69
2023/07/30 03:50:54;;;;;;;6.40;1.80;;;18.10;99.90;;;;;;5093214;28;20059;-69
2023/07/30 03:53:19;;;;;;;8.38;2.05;;;18.10;99.90;;;;;;5092694;28;20047;-68
2023/07/30 03:55:45;;;;;;;7.30;2.00;;;18.00;99.90;;;;;;5092608;28;20035;-68
2023/07/30 03:58:11;;;;;;;5.32;1.90;;;18.00;99.90;;;;;;5092866;28;20036;-68
2023/07/30 04:00:37;;;;;;;6.32;2.05;;;18.00;99.90;;;;;;5092434;28;20032;-69
2023/07/30 04:03:03;;;;;;;4.43;2.00;;;18.00;99.90;;;;;;5092442;28;20103;-70
2023/07/30 04:05:29;;;;;;;5.80;1.60;;;18.00;99.90;;;;;;5092768;28;20092;-69
2023/07/30 04:07:55;;;;;;;10.38;2.80;;;18.00;99.90;;;;;;5091308;28;20323;-70
2023/07/30 04:10:21;;;;;;;6.80;1.98;;;18.00;99.90;;;;;;5092267;28;20064;-68
2023/07/30 04:12:46;;;;;;;8.57;1.88;;;18.00;99.90;;;;;;5092259;28;20426;-69
2023/07/30 04:15:12;;;;;;;6.75;1.95;;;18.00;99.90;;;;;;5092445;28;20511;-69
2023/07/30 04:17:38;;;;;;;6.97;2.15;;;18.00;99.90;;;;;;5092526;28;20032;-68
2023/07/30 04:20:04;;;;;;;7.60;2.20;;;17.90;99.90;;;;;;5090896;28;20039;-69
2023/07/30 04:22:31;;;;;;;7.30;2.00;;;18.00;99.90;;;;;;5091999;28;20039;-70
2023/07/30 04:24:56;;;;;;;18.65;2.55;;;18.00;99.90;;;;;;5090846;28;20040;-69
2023/07/30 04:27:22;;;;;;;8.85;2.83;;;18.00;99.90;;;;;;5091829;28;20093;-69
2023/07/30 04:29:48;;;;;;;4.72;2.47;;;18.00;99.90;;;;;;5092374;28;20100;-70
2023/07/30 04:32:14;;;;;;;9.35;2.53;;;18.00;99.90;;;;;;5091747;28;20040;-70
2023/07/30 04:34:39;;;;;;;5.15;2.22;;;18.00;99.90;;;;;;5091829;28;20024;-70
2023/07/30 04:37:06;;;;;;;6.55;2.22;;;18.00;99.90;;;;;;5090626;28;20059;-70
2023/07/30 04:39:35;;;;;;;10.40;2.92;;;18.00;99.90;;;;;;5090494;28;20119;-70
2023/07/30 04:42:01;;;;;;;2.28;1.77;;;17.90;99.90;;;;;;5091623;28;20039;-69
2023/07/30 04:44:27;;;;;;;6.05;2.72;;;18.00;99.90;;;;;;5092356;28;20020;-70
2023/07/30 04:46:52;;;;;;;8.52;2.28;;;18.00;99.90;;;;;;5091749;28;20029;-70
2023/07/30 04:49:18;;;;;;;5.53;2.28;;;18.00;99.90;;;;;;5091581;28;20028;-69
2023/07/30 04:51:43;;;;;;;6.63;2.30;;;18.10;99.90;;;;;;5091787;28;20028;-70
2023/07/30 04:54:09;;;;;;;7.90;2.25;;;18.10;99.90;;;;;;5091480;28;20032;-69
2023/07/30 04:56:34;;;;;;;12.63;2.13;;;18.10;99.90;;;;;;5091941;28;20405;-69
2023/07/30 04:59:01;;;;;;;7.97;2.25;;;18.10;99.90;;;;;;5091525;28;20406;-69
2023/07/30 05:01:27;;;;;;;11.00;2.60;;;18.20;99.90;;;;;;5090138;28;20071;-71
2023/07/30 05:03:53;;;;;;;10.95;2.28;;;18.20;99.90;;;;;;5091111;28;20447;-71
2023/07/30 05:06:18;;;;;;;9.90;2.53;;;18.20;99.90;;;;;;5091064;28;20048;-70
2023/07/30 05:08:44;;;;;;;6.88;2.40;;;18.20;99.90;;;;;;5091505;28;20082;-70
2023/07/30 05:11:09;;;;;;;7.03;2.70;;;18.20;99.90;;;;;;5091008;28;20028;-71
2023/07/30 05:13:35;;;;;;;8.32;2.90;;;18.30;99.90;;;;;;5089865;28;20473;-69
2023/07/30 05:16:01;;;;;;;5.25;2.80;;;18.20;99.90;;;;;;5090945;28;20085;-70
2023/07/30 05:18:27;;;;;;;10.20;2.97;;;18.30;99.90;;;;;;5091072;28;20032;-69
2023/07/30 05:20:53;;;;;;;10.80;3.10;;;18.40;99.90;;;;;;5091285;28;20024;-69
2023/07/30 05:23:20;;;;;;;7.07;2.92;;;18.30;99.90;;;;;;5089725;28;20042;-69
2023/07/30 05:25:45;;;;;;;12.05;3.05;;;18.30;99.90;;;;;;5090842;28;20043;-70
2023/07/30 05:28:11;;;;;;;7.53;3.10;;;18.30;99.90;;;;;;5090488;28;20024;-69
2023/07/30 05:30:37;;;;;;;16.05;3.63;;;18.40;99.90;;;;;;5090693;28;20032;-70
2023/07/30 05:33:03;;;;;;;9.98;2.90;;;18.30;99.90;;;;;;5090366;28;20079;-69
2023/07/30 05:35:28;;;;;;;9.13;3.15;;;18.40;99.90;;;;;;5091110;28;20153;-69
2023/07/30 05:37:54;;;;;;;6.63;3.10;;;18.40;99.90;;;;;;5090700;28;20050;-69
2023/07/30 05:40:21;;;;;;;11.23;3.47;;;18.40;99.90;;;;;;5090671;28;20039;-70
2023/07/30 05:42:46;;;;;;;9.40;3.25;;;18.40;99.90;;;;;;5090687;28;20097;-69
2023/07/30 05:45:12;;;;;;;9.43;3.72;;;18.40;99.90;;;;;;5090868;28;20438;-71
2023/07/30 05:47:38;;;;;;;6.90;3.15;;;18.40;99.90;;;;;;5090840;28;20073;-69
2023/07/30 05:50:04;;;;;;;8.95;3.05;;;18.50;99.90;;;;;;5090727;28;20028;-70
2023/07/30 05:52:30;;;;;;;9.35;3.20;;;18.40;99.90;;;;;;5090445;28;20035;-71
2023/07/30 05:54:55;;;;;;;10.07;3.30;;;18.40;99.90;;;;;;5090738;28;20032;-70
2023/07/30 05:57:21;;;;;;;6.03;3.00;;;18.50;99.90;;;;;;5090295;28;20120;-70
2023/07/30 05:59:46;;;;;;;9.50;3.08;;;18.50;99.90;;;;;;5090819;28;20043;-70
2023/07/30 06:02:12;;;;;;;12.48;2.72;;;18.60;99.90;;;;;;5090273;28;20028;-70
2023/07/30 06:04:38;;;;;;;8.73;3.10;;;18.70;99.90;;;;;;5089136;28;20081;-69
2023/07/30 06:07:04;;;;;;;11.00;3.15;;;18.80;99.90;;;;;;5089015;28;20357;-68
2023/07/30 06:09:29;;;;;;;5.63;2.28;;;18.80;99.90;;;;;;5089116;28;20016;-70
2023/07/30 06:11:58;;;;;;;10.70;3.03;;;18.90;99.90;;;;;;5090457;28;20027;-68
2023/07/30 06:14:27;;;;;;;11.13;3.28;;;18.90;99.90;;;;;;5089544;28;20412;-69
2023/07/30 06:16:53;;;;;;;12.25;2.75;;;18.90;99.90;;;;;;5090152;28;20025;-70
2023/07/30 06:19:19;;;;;;;9.05;2.83;;;18.90;99.90;;;;;;5090046;28;20216;-69
2023/07/30 06:21:45;;;;;;;14.15;2.95;;;18.90;99.90;;;;;;5090058;28;20044;-69
2023/07/30 06:24:10;;;;;;;12.48;2.85;;;18.90;99.90;;;;;;5090070;28;20028;-69
2023/07/30 06:26:36;;;;;;;5.97;3.00;;;18.90;99.90;;;;;;5090599;28;20032;-68
2023/07/30 06:29:02;;;;;;;5.18;2.85;;;19.00;99.90;;;;;;5090094;28;20034;-69
2023/07/30 06:31:27;;;;;;;7.75;2.63;;;19.00;99.90;;;;;;5090199;28;20036;-68
2023/07/30 06:33:53;;;;;;;10.05;2.92;;;19.00;99.90;;;;;;5089898;28;20363;-69
2023/07/30 06:36:19;;;;;;;10.73;3.55;;;19.00;99.90;;;;;;5088808;28;20335;-68
2023/07/30 06:38:44;;;;;;;9.75;2.95;;;19.10;99.90;;;;;;5090859;28;20028;-68
2023/07/30 06:41:10;;;;;;;7.43;3.25;;;19.20;99.90;;;;;;5093974;28;20092;-68
2023/07/30 06:43:36;;;;;;;9.50;2.28;;;19.30;99.90;;;;;;5094034;28;20119;-68
2023/07/30 06:46:01;;;;;;;8.35;2.55;;;19.30;99.90;;;;;;5093114;28;20060;-69
2023/07/30 06:48:27;;;;;;;8.50;2.38;;;19.50;99.90;;;;;;5094101;28;20020;-69
2023/07/30 06:50:53;;;;;;;8.75;2.40;;;19.50;99.90;;;;;;5094394;28;20020;-69
2023/07/30 06:53:18;;;;;;;6.10;2.45;;;19.40;99.90;;;;;;5093982;28;20550;-69
2023/07/30 06:55:44;;;;;;;7.57;2.45;;;19.40;99.90;;;;;;5094050;28;20111;-69
2023/07/30 06:58:11;;;;;;;10.88;2.78;;;19.50;99.90;;;;;;5092620;28;20115;-69
2023/07/30 07:00:36;;;;;;;7.35;2.25;;;19.50;99.70;;;;;;5093672;28;20047;-69
2023/07/30 07:03:02;;;;;;;5.97;2.13;;;19.60;99.50;;;;;;5093836;28;20353;-69
2023/07/30 07:05:28;;;;;;;4.50;1.58;;;19.60;99.40;;;;;;5094258;28;20035;-69
2023/07/30 07:07:53;;;;;;;7.72;2.00;;;19.60;99.30;;;;;;5093617;28;20354;-70
2023/07/30 07:10:19;;;;;;;3.47;1.70;;;19.60;98.90;;;;;;5093952;28;20051;-70
2023/07/30 07:12:45;;;;;;;4.85;1.60;;;19.70;98.80;;;;;;5093330;28;20362;-69
2023/07/30 07:15:10;;;;;;;4.80;1.83;;;19.90;98.90;;;;;;5093716;28;20023;-68
2023/07/30 07:17:36;;;;;;;4.82;1.83;;;20.00;98.70;;;;;;5094098;28;20089;-69
2023/07/30 07:20:04;;;;;;;8.02;1.83;;;20.10;98.40;;;;;;5093510;28;20085;-69
2023/07/30 07:22:30;;;;;;;5.85;1.60;;;20.10;98.10;;;;;;5093525;28;20032;-70
2023/07/30 07:24:56;;;;;;;5.82;1.42;;;20.00;97.60;;;;;;5093636;28;20143;-70
2023/07/30 07:27:24;;;;;;;9.93;1.98;;;20.10;97.80;;;;;;5093294;28;20032;-68
2023/07/30 07:29:50;;;;;;;11.07;2.00;;;20.20;97.50;;;;;;5093775;28;20099;-68
2023/07/30 07:32:15;;;;;;;9.27;1.65;;;20.30;97.20;;;;;;5093085;28;20374;-68
2023/07/30 07:34:41;;;;;;;5.03;1.75;;;20.20;96.80;;;;;;5092268;28;20039;-69
2023/07/30 07:37:07;;;;;;;6.85;1.52;;;20.10;96.70;;;;;;5092194;28;20035;-69
2023/07/30 07:39:33;;;;;;;10.63;2.50;;;20.00;96.90;;;;;;5092042;28;20104;-69
2023/07/30 07:41:59;;;;;;;3.88;1.40;;;20.10;96.90;;;;;;5091852;28;20020;-70
2023/07/30 07:44:24;;;;;;;13.60;1.88;;;20.10;97.10;;;;;;5092395;28;20158;-69
2023/07/30 07:46:50;;;;;;;6.00;1.83;;;20.10;96.80;;;;;;5091767;28;20039;-68
2023/07/30 07:49:16;;;;;;;9.18;2.00;;;20.20;97.00;;;;;;5091649;28;20080;-69
2023/07/30 07:51:41;;;;;;;4.78;1.58;;;20.30;96.80;;;;;;5091603;28;20099;-69
2023/07/30 07:54:07;;;;;;;9.27;1.83;;;20.30;96.80;;;;;;5091908;28;20087;-69
2023/07/30 07:56:33;;;;;;;3.38;1.92;;;20.40;96.90;;;;;;5092148;28;20028;-68
2023/07/30 07:58:59;;;;;;;6.82;1.73;;;20.40;97.10;;;;;;5091714;28;20115;-68
2023/07/30 08:01:24;;;;;;;7.47;1.80;;;20.50;96.80;;;;;;5091459;28;20028;-69
2023/07/30 08:03:50;;;;;;;6.32;1.90;;;20.70;96.90;;;;;;5090392;28;20036;-68
2023/07/30 08:06:16;;;;;;;4.55;1.50;;;20.80;96.10;;;;;;5091429;28;20028;-68
2023/07/30 08:08:42;;;;;;;8.38;2.08;;;20.90;96.20;;;;;;5092221;28;20061;-69
2023/07/30 08:11:08;;;;;;;6.43;1.70;;;21.10;96.40;;;;;;5091668;28;20432;-69
2023/07/30 08:13:35;;;;;;;8.07;2.35;;;21.30;96.10;;;;;;5091403;28;20047;-68
2023/07/30 08:16:01;;;;;;;4.22;1.83;;;21.20;95.70;;;;;;5091622;28;20088;-68
2023/07/30 08:18:27;;;;;;;9.30;2.33;;;21.30;95.40;;;;;;5091487;28;20458;-68
2023/07/30 08:20:53;;;;;;;8.77;2.22;;;21.60;95.10;;;;;;5091556;28;20408;-68
2023/07/30 08:23:19;;;;;;;8.02;1.88;;;21.60;95.00;;;;;;5089866;28;20103;-68
2023/07/30 08:25:45;;;;;;;7.22;2.63;;;21.70;94.80;;;;;;5091099;28;20024;-68
2023/07/30 08:28:10;;;;;;;23.77;4.15;;;22.10;94.40;;;;;;5091152;28;20437;-68
2023/07/30 08:30:36;;;;;;;9.85;2.25;;;22.50;94.80;;;;;;5091188;28;20028;-69
2023/07/30 08:33:02;;;;;;;9.00;2.30;;;23.00;94.10;;;;;;5052170;28;1117103;-68
2023/07/30 08:35:28;;;;;;;6.75;2.15;;;23.20;92.90;;;;;;5092722;28;20122;-67
2023/07/30 08:37:55;;;;;;;7.50;2.33;;;23.00;93.30;;;;;;5091908;28;20038;-69
2023/07/30 08:40:23;;;;;;;13.70;2.65;;;23.10;93.40;;;;;;5092166;28;20173;-68
2023/07/30 08:42:53;;;;;;;8.35;2.42;;;23.00;93.20;;;;;;5091816;28;20066;-69
2023/07/30 08:45:18;;;;;;;8.65;2.35;;;22.90;92.90;;;;;;5092432;28;20042;-69
2023/07/30 08:47:45;;;;;;;12.90;2.20;;;23.40;93.50;;;;;;5092348;28;20319;-69
2023/07/30 08:50:11;;;;;;;8.90;2.40;;;24.00;92.30;;;;;;5091666;28;20043;-68
2023/07/30 08:52:37;;;;;;;7.85;2.33;;;24.30;92.40;;;;;;5091942;28;20035;-69
2023/07/30 08:55:04;;;;;;;6.38;2.50;;;24.60;91.30;;;;;;5091744;28;20050;-69
2023/07/30 08:57:30;;;;;;;4.40;2.03;;;25.00;91.40;;;;;;5091523;28;20275;-70
2023/07/30 09:00:16;;;;;;;4.80;2.25;;;25.30;90.50;;;;;;5092007;28;20039;-70
2023/07/30 09:02:51;;;;;;;4.00;1.90;;;25.90;90.40;;;;;;5090893;28;20064;-70
2023/07/30 09:05:19;;;;;;;7.85;2.22;;;26.60;88.00;;;;;;5091361;28;20261;-69
2023/07/30 09:07:44;;;;;;;8.18;2.10;;;27.00;86.60;;;;;;5090301;28;20157;-69
2023/07/30 09:10:10;;;;;;;7.75;2.30;;;26.30;85.90;;;;;;5091623;28;20594;-69
2023/07/30 09:12:36;;;;;;;8.63;2.30;;;26.60;85.70;;;;;;5091241;28;20557;-69
2023/07/30 09:15:06;;;;;;;5.85;2.80;;;26.30;86.10;;;;;;5091519;28;20021;-69
2023/07/30 09:17:32;;;;;;;7.53;2.45;;;26.80;84.80;;;;;;5092063;28;20047;-69
2023/07/30 09:20:03;;;;;;;5.35;2.20;;;27.10;83.90;;;;;;5091009;28;20024;-69
2023/07/30 09:22:36;;;;;;;7.07;2.15;;;27.80;83.60;;;;;;5091055;28;20051;-70
2023/07/30 09:25:03;;;;;;;8.20;2.60;;;28.20;82.90;;;;;;5091040;28;20035;-70
2023/07/30 09:27:29;;;;;;;9.13;2.83;;;27.80;81.40;;;;;;5090882;28;20032;-69
2023/07/30 09:30:00;;;;;;;7.15;2.75;;;27.30;82.00;;;;;;5091518;28;20024;-70
2023/07/30 09:32:27;;;;;;;13.35;3.10;;;27.50;81.50;;;;;;5089872;28;20117;-70
2023/07/30 09:34:53;;;;;;;5.85;2.40;;;27.30;83.70;;;;;;5090755;28;20112;-69
2023/07/30 09:37:19;;;;;;;10.60;3.15;;;27.40;81.30;;;;;;5090817;28;20067;-69
2023/07/30 09:39:48;;;;;;;4.68;2.30;;;27.50;82.40;;;;;;5090822;28;20028;-70
2023/07/30 09:42:14;;;;;;;6.03;2.63;;;27.30;81.40;;;;;;5090708;28;20086;-70
2023/07/30 09:44:40;;;;;;;8.60;3.00;;;27.10;82.20;;;;;;5091061;28;20093;-69
2023/07/30 09:47:12;;;;;;;7.80;2.60;;;25.60;84.50;;;;;;5090676;28;20032;-69
2023/07/30 09:49:38;;;;;;;10.65;3.50;;;25.50;85.60;;;;;;5090406;28;20481;-69
2023/07/30 09:52:08;;;;;;;10.68;2.95;;;25.30;85.40;;;;;;5090978;28;20028;-70
2023/07/30 09:54:33;;;;;;;10.60;3.17;;;24.80;87.10;;;;;;5090594;28;20158;-69
2023/07/30 09:56:59;;;;;;;10.98;3.20;;;24.90;87.00;;;;;;5090256;28;20020;-69
2023/07/30 09:59:25;;;;;;;7.28;3.05;;;24.80;87.60;;;;;;5091114;28;20046;-69
2023/07/30 10:01:55;;;;;;;9.63;2.85;;;24.60;88.40;;;;;;5090120;28;20046;-69
2023/07/30 10:04:21;;;;;;;7.05;3.00;;;24.40;88.90;;;;;;5090332;28;20118;-69
2023/07/30 10:06:59;;;;;;;7.63;2.33;;;24.80;88.60;;;;;;5089436;28;20369;-69
2023/07/30 10:09:31;;;;;;;6.57;2.90;;;24.60;87.70;;;;;;5090405;28;20028;-70
2023/07/30 10:11:59;;;;;;;5.22;2.92;;;24.20;89.10;;;;;;5090509;28;20502;-69
2023/07/30 10:14:26;;;;;;;8.25;2.92;;;23.90;90.00;;;;;;5090498;28;20032;-70
2023/07/30 10:16:59;;;;;;;8.55;3.67;;;23.90;90.20;;;;;;5089173;28;20131;-69
2023/07/30 10:19:26;;;;;;;10.20;3.58;;;23.50;90.60;;;;;;5090384;28;20085;-70
2023/07/30 10:21:59;;;;;;;9.85;4.30;;;23.30;90.70;;;;;;5089155;28;20043;-68
2023/07/30 10:24:26;;;;;;;6.05;3.92;;;23.20;91.10;;;;;;5090310;28;20085;-68
2023/07/30 10:26:53;;;;;;;10.55;4.13;;;23.10;91.30;;;;;;5090994;28;20035;-68
2023/07/30 10:29:20;;;;;;;8.82;3.97;;;23.00;91.40;;;;;;5088825;28;20047;-68
2023/07/30 10:31:54;;;;;;;8.38;4.32;;;23.10;91.40;;;;;;5088955;28;20377;-68
2023/07/30 10:34:20;;;;;;;7.78;4.60;;;22.90;91.70;;;;;;5090049;28;20047;-69
2023/07/30 10:36:47;;;;;;;10.27;4.35;;;22.90;91.80;;;;;;5089932;28;20032;-69
2023/07/30 10:39:19;;;;;;;8.60;4.88;;;22.90;91.90;;;;;;5090008;28;20443;-68
2023/07/30 10:41:55;;;;;;;9.93;5.15;;;22.80;92.10;;;;;;5089448;28;20040;-68
2023/07/30 10:44:30;;;;;;;15.32;5.50;;;22.50;92.40;;;;;;5090053;28;20043;-69
2023/07/30 10:46:58;;;;;;;9.73;5.40;;;22.50;92.70;;;;;;5090000;28;20470;-68
2023/07/30 10:49:24;;;;;;;;;;;22.70;92.60;;;;;;5090467;28;20116;-68
2023/07/30 10:51:52;;;;;;;15.98;5.63;;;22.70;92.60;;;;;;5090108;28;20007;-69
2023/07/30 10:54:18;;;;;;;16.00;5.95;;;22.60;92.60;;;;;;5089709;28;20446;-69
2023/07/30 10:56:45;;;;;;;10.68;5.88;;;22.30;93.10;;;;;;5090519;28;20103;-68
2023/07/30 10:59:12;;;;;;;13.23;5.97;;;22.20;93.20;;;;;;5090145;28;20028;-68
2023/07/30 11:01:39;;;;;;;13.88;6.47;;;22.20;93.40;;;;;;5089710;28;20407;-68
2023/07/30 11:04:15;;;;;;;9.75;5.82;;;21.60;94.20;;;;;;5089989;28;20044;-69
2023/07/30 11:06:49;;;;;;;13.07;6.75;;;21.80;94.20;;;;;;5089931;28;20085;-69
2023/07/30 11:09:22;;;;;;;12.60;6.68;;;21.90;94.20;;;;;;5089834;28;20074;-69
2023/07/30 11:11:49;;;;;;;14.13;6.47;;;22.00;94.20;;;;;;5089057;28;20060;-69
2023/07/30 11:14:20;;;;;;;10.27;6.37;;;22.10;93.90;;;;;;5090254;28;20028;-68
2023/07/30 11:16:59;;;;;;;18.98;6.60;;;22.00;94.00;;;;;;5089611;28;20382;-68
2023/07/30 11:19:25;;;;;;;15.15;6.90;;;22.10;94.10;;;;;;5089518;28;20111;-69
2023/07/30 11:21:53;;;;;;;10.57;6.55;;;22.00;94.20;;;;;;5089597;28;20044;-69
2023/07/30 11:24:19;;;;;;;12.27;6.80;;;21.90;94.10;;;;;;5089453;28;20044;-68
2023/07/30 11:26:45;;;;;;;13.18;7.30;;;22.00;94.30;;;;;;5093832;28;20028;-69
2023/07/30 11:29:16;;;;;;;13.65;7.25;;;21.80;94.30;;;;;;5092150;28;20040;-69
2023/07/30 11:31:43;;;;;;;14.38;6.85;;;21.80;94.40;;;;;;5093470;28;20031;-68
2023/07/30 11:34:09;;;;;;;15.90;7.38;;;21.80;94.40;;;;;;5093316;28;20047;-69
2023/07/30 11:36:35;;;;;;;16.48;7.63;;;21.90;94.60;;;;;;5093089;28;20028;-68
2023/07/30 11:39:01;;;;;;;17.75;6.68;;;22.40;94.40;;;;;;5093329;28;20125;-68
2023/07/30 11:41:28;;;;;;;15.48;7.13;;;22.50;94.10;;;;;;5093485;28;20112;-70
2023/07/30 11:43:54;;;;;;;15.32;8.35;;;22.50;93.80;;;;;;5093084;28;20028;-68
2023/07/30 11:46:22;;;;;;;18.33;8.65;;;22.50;93.80;;;;;;5093035;28;20105;-68
2023/07/30 11:48:49;;;;;;;18.08;8.13;;;22.30;93.60;;;;;;5092955;28;20434;-70
2023/07/30 11:51:21;;;;;;;12.77;7.40;;;22.40;93.80;;;;;;5092489;28;20028;-68
2023/07/30 11:53:55;;;;;;;16.17;8.50;;;22.50;93.60;;;;;;5093333;28;20020;-69
2023/07/30 11:56:22;;;;;;;15.40;8.15;;;22.60;93.20;;;;;;5094006;28;20389;-68
2023/07/30 11:58:49;;;;;;;14.00;7.85;;;22.60;93.10;;;;;;5091545;28;20039;-68
2023/07/30 12:01:16;;;;;;;17.17;8.85;;;22.60;92.90;;;;;;5093358;28;20095;-69
2023/07/30 12:03:41;;;;;;;26.60;9.55;;;22.50;93.10;;;;;;5091471;28;20038;-67
2023/07/30 12:06:09;;;;;;;14.65;7.55;;;22.70;92.90;;;;;;5092728;28;20024;-69
2023/07/30 12:08:35;;;;;;;15.30;8.63;;;22.90;92.90;;;;;;5093362;28;20268;-68
2023/07/30 12:11:05;;;;;;;12.35;7.60;;;22.80;92.50;;;;;;5092599;28;20039;-68
2023/07/30 12:13:32;;;;;;;13.35;7.20;;;22.80;92.90;;;;;;5092447;28;20031;-68
2023/07/30 12:15:58;;;;;;;14.27;6.88;;;23.10;92.90;;;;;;5091213;28;20032;-69
2023/07/30 12:18:25;;;;;;;15.10;7.07;;;23.10;92.50;;;;;;5092267;28;20024;-68
2023/07/30 12:20:52;;;;;;;13.00;6.68;;;23.20;92.50;;;;;;5093090;28;20020;-68
2023/07/30 12:23:18;;;;;;;12.60;6.73;;;23.30;92.50;;;;;;5091216;28;20028;-69
2023/07/30 12:25:44;;;;;;;11.57;5.40;;;23.20;92.30;;;;;;5091210;28;20093;-70
2023/07/30 12:28:10;;;;;;;13.00;5.80;;;23.20;91.80;;;;;;5091083;28;20032;-69
2023/07/30 12:30:36;;;;;;;11.38;5.57;;;23.30;91.80;;;;;;5090836;28;20039;-69
2023/07/30 12:33:03;;;;;;;13.70;5.65;;;23.10;91.60;;;;;;5091995;28;20042;-68
2023/07/30 12:35:30;;;;;;;13.52;6.55;;;22.90;91.60;;;;;;5091795;28;20020;-70
2023/07/30 12:37:55;;;;;;;8.38;4.85;;;23.10;91.50;;;;;;5091096;28;20028;-68
2023/07/30 12:40:21;;;;;;;10.43;5.20;;;23.10;91.30;;;;;;5091993;28;20374;-69
2023/07/30 12:42:47;;;;;;;10.50;5.43;;;23.00;90.90;;;;;;5091831;28;20074;-69